Time;durP1;ratioP1;P1;durP2;ratioP2;P2;SDS_P1;SDS_P2;PMS_P1;PMS_P2;Temp;Humidity;BMP_temperature;BMP_pressure;BME280_temperature;BME280_humidity;BME280_pressure;Samples;Min_cycle;Max_cycle;Signal;HPM_P1;HPM_P2
2022/04/21 00:01:22;;;;;;;;;0.00;0.00;20.70;99.90;;;;;;5048528;28;9021;-54
2022/04/21 00:03:55;;;;;;;;;0.00;0.00;20.70;99.90;;;;;;5016946;28;9736;-54
2022/04/21 00:06:25;;;;;;;;;0.00;0.00;20.70;99.90;;;;;;5014628;28;8896;-53
2022/04/21 00:08:55;;;;;;;;;0.00;0.00;20.70;99.90;;;;;;5013530;28;8865;-52
2022/04/21 00:11:26;;;;;;;;;0.00;0.00;20.60;99.90;;;;;;5015518;28;8863;-48
2022/04/21 00:13:58;;;;;;;;;1.50;0.00;20.60;99.90;;;;;;5021035;28;8864;-54
2022/04/21 00:16:28;;;;;;;;;0.00;0.00;20.60;99.90;;;;;;5016032;28;8879;-52
2022/04/21 00:18:59;;;;;;;;;0.00;0.00;20.50;99.90;;;;;;5016740;28;8852;-57
2022/04/21 00:23:26;;;;;;;;;0.00;0.00;20.50;99.90;;;;;;5015411;28;8896;-53
2022/04/21 00:24:19;;;;;;;;;0.00;0.00;20.50;99.90;;;;;;5017569;28;8857;-55
2022/04/21 00:26:51;;;;;;;;;0.00;0.00;20.50;99.90;;;;;;5013905;28;8888;-52
2022/04/21 00:29:22;;;;;;;;;0.00;0.00;20.40;99.90;;;;;;5051134;28;8883;-54
2022/04/21 00:31:53;;;;;;;;;0.00;0.00;20.40;99.90;;;;;;5015735;28;8932;-55
2022/04/21 00:34:23;;;;;;;;;0.00;0.00;20.40;99.90;;;;;;5019902;28;9635;-52
2022/04/21 00:36:53;;;;;;;;;0.00;0.00;20.40;99.90;;;;;;5012863;28;9597;-55
2022/04/21 00:39:24;;;;;;;;;0.00;0.00;20.40;99.90;;;;;;5011044;28;8973;-54
2022/04/21 00:41:58;;;;;;;;;1.00;1.00;20.40;99.90;;;;;;5030830;28;8975;-53
2022/04/21 00:44:30;;;;;;;;;0.33;0.33;20.40;99.90;;;;;;5016554;28;9068;-52
2022/04/21 00:47:06;;;;;;;;;0.00;0.00;20.40;99.90;;;;;;5051483;28;9095;-54
2022/04/21 00:49:37;;;;;;;;;0.00;0.00;20.30;99.90;;;;;;5050555;28;8805;-51
2022/04/21 00:52:09;;;;;;;;;0.00;0.00;20.30;99.90;;;;;;5014320;28;9768;-53
2022/04/21 00:54:40;;;;;;;;;0.00;0.00;20.20;99.90;;;;;;5012659;28;9068;-52
2022/04/21 00:57:11;;;;;;;;;0.00;0.00;20.30;99.90;;;;;;5014810;28;9037;-54
2022/04/21 00:59:45;;;;;;;;;0.00;0.00;20.20;99.90;;;;;;5022046;28;8941;-53
2022/04/21 01:05:04;;;;;;;;;0.00;0.00;20.20;99.90;;;;;;5021753;28;9003;-52
2022/04/21 01:07:35;;;;;;;;;0.00;0.00;20.30;99.90;;;;;;5045404;28;9048;-54
2022/04/21 01:10:08;;;;;;;;;2.00;1.00;20.30;99.90;;;;;;5018931;28;8837;-55
2022/04/21 01:12:43;;;;;;;;;0.00;0.00;20.30;99.90;;;;;;5013461;28;9087;-52
2022/04/21 01:15:13;;;;;;;;;0.00;0.00;20.20;99.90;;;;;;5023824;28;9117;-54
2022/04/21 01:17:45;;;;;;;;;0.00;0.00;20.20;99.90;;;;;;5018366;28;9041;-54
2022/04/21 01:20:18;;;;;;;;;0.00;0.00;20.20;99.90;;;;;;5019072;28;8814;-54
2022/04/21 01:22:49;;;;;;;;;0.00;0.00;20.10;99.90;;;;;;5022705;28;8860;-53
2022/04/21 01:25:22;;;;;;;;;0.00;0.00;20.10;99.90;;;;;;5020044;28;8993;-53
2022/04/21 01:28:00;;;;;;;;;0.00;0.00;20.10;99.90;;;;;;5024183;28;8970;-53
2022/04/21 01:30:30;;;;;;;;;1.00;0.00;20.10;99.90;;;;;;5017259;28;9655;-55
2022/04/21 01:33:01;;;;;;;;;0.00;0.00;20.10;99.90;;;;;;5026692;28;8923;-54
2022/04/21 01:35:31;;;;;;;;;0.00;0.00;20.10;99.90;;;;;;5045746;28;8861;-54
2022/04/21 01:43:43;;;;;;;;;0.00;0.00;20.00;99.90;;;;;;5022179;28;9507;-53
2022/04/21 01:46:16;;;;;;;;;0.00;0.00;19.90;99.90;;;;;;5024083;28;8985;-54
2022/04/21 01:48:48;;;;;;;;;0.00;0.00;19.90;99.90;;;;;;5051978;28;9670;-52
2022/04/21 01:51:19;;;;;;;;;1.00;0.00;19.90;99.90;;;;;;5014042;28;9018;-51
2022/04/21 01:53:50;;;;;;;;;1.00;1.00;19.80;99.90;;;;;;5026246;28;9150;-51
2022/04/21 01:56:22;;;;;;;;;1.00;1.00;19.80;99.90;;;;;;5049503;28;9252;-54
2022/04/21 01:58:52;;;;;;;;;0.00;0.00;19.70;99.90;;;;;;5022882;28;9156;-55
2022/04/21 02:01:31;;;;;;;;;0.00;0.00;19.70;99.90;;;;;;5025767;28;8991;-55
2022/04/21 02:04:04;;;;;;;;;0.00;0.00;19.70;99.90;;;;;;5022812;28;9211;-55
2022/04/21 02:06:35;;;;;;;;;0.00;0.00;19.70;99.90;;;;;;5023371;28;9163;-53
2022/04/21 02:09:05;;;;;;;;;0.00;0.00;19.60;99.90;;;;;;5019626;28;9222;-53
2022/04/21 02:11:35;;;;;;;;;0.00;0.00;19.60;99.90;;;;;;5020966;28;9240;-53
2022/04/21 02:14:06;;;;;;;;;0.00;0.00;19.60;99.90;;;;;;5025075;28;9166;-50
2022/04/21 02:16:36;;;;;;;;;0.00;0.00;19.60;99.90;;;;;;5022259;28;9380;-52
2022/04/21 02:19:07;;;;;;;;;0.00;0.00;19.70;99.90;;;;;;5033044;28;9345;-52
2022/04/21 02:21:37;;;;;;;;;1.00;1.00;19.60;99.90;;;;;;5019631;28;9229;-52
2022/04/21 02:24:08;;;;;;;;;0.00;0.00;19.60;99.90;;;;;;5023189;28;9329;-51
2022/04/21 02:26:39;;;;;;;;;0.00;0.00;19.60;99.90;;;;;;5019813;28;9287;-52
2022/04/21 02:29:10;;;;;;;;;0.00;0.00;19.60;99.90;;;;;;5019494;28;9231;-53
2022/04/21 02:31:40;;;;;;;;;0.00;0.00;19.60;99.90;;;;;;5021280;28;9349;-54
2022/04/21 02:34:12;;;;;;;;;0.00;0.00;19.60;99.90;;;;;;5021332;28;9349;-54
2022/04/21 02:36:43;;;;;;;;;0.00;0.00;19.50;99.90;;;;;;5017665;28;9455;-53
2022/04/21 02:39:13;;;;;;;;;0.00;0.00;19.50;99.90;;;;;;5018779;28;9318;-53
2022/04/21 02:41:44;;;;;;;;;0.00;0.00;19.50;99.90;;;;;;5047775;28;9266;-53
2022/04/21 02:44:16;;;;;;;;;0.67;0.00;19.50;99.90;;;;;;5019302;28;10211;-54
2022/04/21 02:46:48;;;;;;;;;0.00;0.00;19.40;99.90;;;;;;5016445;28;9538;-51
2022/04/21 02:49:18;;;;;;;;;0.00;0.00;19.40;99.90;;;;;;5016369;28;10097;-52
2022/04/21 02:51:50;;;;;;;;;0.00;0.00;19.40;99.90;;;;;;5024937;28;9501;-53
2022/04/21 02:57:20;;;;;;;;;0.67;0.67;19.30;99.90;;;;;;5018472;28;9422;-51
2022/04/21 02:59:57;;;;;;;;;2.00;2.00;19.30;99.90;;;;;;5019118;28;9316;-52
2022/04/21 03:02:27;;;;;;;;;0.00;0.00;19.30;99.90;;;;;;5053987;28;10223;-49
2022/04/21 03:04:58;;;;;;;;;0.00;0.00;19.30;99.90;;;;;;5023754;28;9342;-52
2022/04/21 03:07:30;;;;;;;;;0.00;0.00;19.30;99.90;;;;;;5048478;28;9385;-51
2022/04/21 03:09:59;;;;;;;;;1.00;1.00;19.30;99.90;;;;;;5016179;28;9333;-53
2022/04/21 03:12:30;;;;;;;;;0.00;0.00;19.30;99.90;;;;;;5016779;28;9521;-52
2022/04/21 03:15:02;;;;;;;;;0.00;0.00;19.20;99.90;;;;;;5047289;28;9686;-51
2022/04/21 03:17:34;;;;;;;;;0.33;0.33;19.20;99.90;;;;;;5019670;28;9456;-53
2022/04/21 03:20:05;;;;;;;;;0.00;0.00;19.20;99.90;;;;;;5017105;28;9606;-51
2022/04/21 03:25:30;;;;;;;;;0.75;0.75;19.10;99.90;;;;;;5017781;28;9529;-52
2022/04/21 03:28:04;;;;;;;;;0.75;0.75;19.10;99.90;;;;;;5021927;28;9731;-54
2022/04/21 03:30:34;;;;;;;;;1.33;0.33;19.00;99.90;;;;;;5021753;28;9729;-52
2022/04/21 03:33:05;;;;;;;;;0.00;0.00;19.00;99.90;;;;;;5023279;28;9510;-52
2022/04/21 03:35:35;;;;;;;;;0.00;0.00;19.00;99.90;;;;;;5015599;28;10553;-54
2022/04/21 03:38:06;;;;;;;;;0.00;0.00;18.90;99.90;;;;;;5013957;28;9782;-54
2022/04/21 03:40:37;;;;;;;;;0.00;0.00;18.90;99.90;;;;;;5017884;28;9696;-55
2022/04/21 03:43:11;;;;;;;;;0.00;0.00;18.90;99.90;;;;;;5019575;28;10196;-53
2022/04/21 03:45:41;;;;;;;;;0.00;0.00;18.90;99.90;;;;;;5036563;28;10005;-54
2022/04/21 03:48:13;;;;;;;;;0.00;0.00;18.80;99.90;;;;;;5018171;28;9809;-53
2022/04/21 03:50:44;;;;;;;;;0.00;0.00;18.80;99.90;;;;;;5015758;28;9869;-53
2022/04/21 03:53:16;;;;;;;;;0.50;0.50;18.70;99.90;;;;;;5017605;28;9863;-51
2022/04/21 03:55:47;;;;;;;;;0.50;0.50;18.80;99.90;;;;;;5019614;28;10110;-50
2022/04/21 03:58:17;;;;;;;;;0.75;0.75;18.70;99.90;;;;;;5016876;28;10851;-53
2022/04/21 04:00:48;;;;;;;;;2.00;2.00;18.70;99.90;;;;;;5021953;28;9927;-50
2022/04/21 04:03:17;;;;;;;;;2.50;2.50;18.60;99.90;;;;;;5019187;28;10084;-52
2022/04/21 04:05:48;;;;;;;;;2.25;2.25;18.60;99.90;;;;;;5012257;28;10013;-53
2022/04/21 04:11:10;;;;;;;;;0.00;0.00;18.50;99.90;;;;;;5013372;28;10348;-52
2022/04/21 04:13:40;;;;;;;;;1.25;0.00;18.50;99.90;;;;;;5021979;28;10081;-54
2022/04/21 04:16:13;;;;;;;;;0.25;0.00;18.40;99.90;;;;;;5020395;28;10013;-52
2022/04/21 04:18:44;;;;;;;;;0.00;0.00;18.40;99.90;;;;;;5022990;28;9833;-50
2022/04/21 04:21:15;;;;;;;;;1.00;1.00;18.40;99.90;;;;;;5010787;28;10172;-51
2022/04/21 04:23:45;;;;;;;;;0.50;0.50;18.40;99.90;;;;;;5018100;28;10089;-49
2022/04/21 04:26:16;;;;;;;;;0.00;0.00;18.30;99.90;;;;;;5047461;28;9981;-53
2022/04/21 04:28:49;;;;;;;;;0.00;0.00;18.30;99.90;;;;;;4999473;28;10131;-53
2022/04/21 04:31:19;;;;;;;;;0.00;0.00;18.30;99.90;;;;;;5015755;28;10168;-52
2022/04/21 04:33:49;;;;;;;;;0.00;0.00;18.30;99.90;;;;;;5016750;28;10174;-49
2022/04/21 04:36:21;;;;;;;;;0.00;0.00;18.20;99.90;;;;;;5018586;28;10085;-51
2022/04/21 04:38:52;;;;;;;;;0.00;0.00;18.20;99.90;;;;;;5016056;28;10143;-51
2022/04/21 04:44:11;;;;;;;;;1.00;1.00;18.20;99.90;;;;;;5016173;28;10427;-50
2022/04/21 04:46:43;;;;;;;;;0.00;0.00;18.20;99.90;;;;;;5015591;28;10034;-51
2022/04/21 04:49:14;;;;;;;;;0.00;0.00;18.10;99.90;;;;;;5057180;28;10171;-54
2022/04/21 04:51:46;;;;;;;;;0.00;0.00;18.10;99.90;;;;;;5007865;28;10078;-52
2022/04/21 04:54:18;;;;;;;;;0.00;0.00;18.10;99.90;;;;;;5034312;28;10145;-53
2022/04/21 04:56:49;;;;;;;;;0.00;0.00;18.00;99.90;;;;;;5007725;28;10177;-53
2022/04/21 04:59:20;;;;;;;;;0.50;0.50;18.00;99.90;;;;;;5018416;28;9914;-52
2022/04/21 05:01:52;;;;;;;;;0.00;0.00;18.00;99.90;;;;;;5016719;28;9979;-53
2022/04/21 05:04:25;;;;;;;;;0.00;0.00;18.00;99.90;;;;;;5021272;28;10791;-53
2022/04/21 05:06:57;;;;;;;;;0.00;0.00;18.00;99.90;;;;;;5016454;28;10114;-52
2022/04/21 05:09:27;;;;;;;;;0.50;0.50;18.00;99.90;;;;;;5020052;28;10159;-53
2022/04/21 05:11:59;;;;;;;;;0.00;0.00;18.00;99.90;;;;;;5014682;28;10089;-53
2022/04/21 05:14:30;;;;;;;;;0.00;0.00;17.90;99.90;;;;;;5052434;28;10079;-51
2022/04/21 05:17:01;;;;;;;;;0.00;0.00;18.00;99.90;;;;;;5041799;28;10234;-52
2022/04/21 05:19:32;;;;;;;;;0.25;0.25;18.00;99.90;;;;;;5019334;28;9947;-51
2022/04/21 05:22:05;;;;;;;;;0.25;0.25;18.00;99.90;;;;;;5011792;28;10205;-51
2022/04/21 05:24:38;;;;;;;;;1.50;1.50;17.90;99.90;;;;;;5051286;28;10418;-53
2022/04/21 05:27:09;;;;;;;;;0.25;0.25;17.90;99.90;;;;;;5009339;28;10054;-53
2022/04/21 05:32:35;;;;;;;;;0.00;0.00;17.90;99.90;;;;;;5017682;28;10086;-53
2022/04/21 05:35:07;;;;;;;;;0.00;0.00;17.90;99.90;;;;;;5015877;28;10153;-52
2022/04/21 05:37:38;;;;;;;;;0.00;0.00;17.90;99.90;;;;;;5015703;28;10911;-54
2022/04/21 05:40:09;;;;;;;;;1.75;0.50;17.80;99.90;;;;;;5014211;28;10305;-52
2022/04/21 05:42:50;;;;;;;;;0.00;0.00;17.80;99.90;;;;;;5020327;28;10186;-52
2022/04/21 05:45:20;;;;;;;;;0.25;0.25;17.80;99.90;;;;;;5013615;28;10158;-51
2022/04/21 05:47:51;;;;;;;;;1.00;1.00;17.80;99.90;;;;;;5018163;28;10169;-53
2022/04/21 05:50:22;;;;;;;;;1.75;1.75;17.80;99.90;;;;;;5016140;28;10661;-53
2022/04/21 05:52:55;;;;;;;;;1.25;1.25;17.70;99.90;;;;;;4998492;28;11281;-51
2022/04/21 05:55:26;;;;;;;;;2.75;2.75;17.70;99.90;;;;;;5014160;28;10845;-52
2022/04/21 05:57:57;;;;;;;;;3.75;3.75;17.70;99.90;;;;;;5020934;28;10582;-53
2022/04/21 06:00:28;;;;;;;;;4.50;4.50;17.70;99.90;;;;;;5019546;28;10648;-53
2022/04/21 06:02:59;;;;;;;;;6.50;6.50;17.70;99.90;;;;;;5019945;28;11481;-53
2022/04/21 06:05:29;;;;;;;;;8.25;8.25;17.60;99.90;;;;;;5016702;28;10703;-54
2022/04/21 06:08:00;;;;;;;;;10.25;10.25;17.60;99.90;;;;;;5022322;28;10906;-54
2022/04/21 06:10:31;;;;;;;;;10.75;10.75;17.60;99.90;;;;;;5021458;28;10851;-52
2022/04/21 06:13:03;;;;;;;;;12.00;12.00;17.60;99.90;;;;;;5019675;28;10875;-52
2022/04/21 06:15:34;;;;;;;;;12.00;12.00;17.60;99.90;;;;;;5018519;28;10973;-53
2022/04/21 06:18:05;;;;;;;;;12.25;12.25;17.50;99.90;;;;;;5014714;28;11131;-53
2022/04/21 06:20:35;;;;;;;;;11.75;11.75;17.50;99.90;;;;;;5046783;28;10968;-55
2022/04/21 06:23:06;;;;;;;;;12.75;12.75;17.50;99.90;;;;;;5050828;28;11738;-54
2022/04/21 06:25:44;;;;;;;;;12.25;12.25;17.40;99.90;;;;;;5020557;28;10958;-53
2022/04/21 06:28:16;;;;;;;;;12.00;12.00;17.50;99.90;;;;;;5015498;28;10815;-55
2022/04/21 06:30:48;;;;;;;;;11.25;11.25;17.40;99.90;;;;;;5020267;28;11004;-53
2022/04/21 06:33:20;;;;;;;;;8.75;8.75;17.40;99.90;;;;;;5045431;28;11054;-52
2022/04/21 06:35:50;;;;;;;;;5.75;5.75;17.40;99.90;;;;;;5060290;28;10999;-53
2022/04/21 06:38:21;;;;;;;;;7.00;7.00;17.40;99.90;;;;;;5021867;28;11204;-53
2022/04/21 06:40:52;;;;;;;;;8.00;8.00;17.30;99.90;;;;;;5012870;28;11049;-51
2022/04/21 06:48:59;;;;;;;;;0.50;0.50;17.20;99.90;;;;;;5023029;28;10576;-54
2022/04/21 06:51:32;;;;;;;;;1.50;0.25;17.20;99.90;;;;;;5020137;28;10305;-51
2022/04/21 06:54:03;;;;;;;;;0.75;0.75;17.20;99.90;;;;;;5014903;28;10329;-54
2022/04/21 06:56:35;;;;;;;;;0.50;0.50;17.20;99.90;;;;;;5016174;28;10219;-52
2022/04/21 06:59:08;;;;;;;;;0.00;0.00;17.20;99.90;;;;;;5017680;28;10203;-54
2022/04/21 07:01:41;;;;;;;;;0.50;0.50;17.10;99.90;;;;;;5018927;28;10310;-54
2022/04/21 07:04:11;;;;;;;;;0.00;0.00;17.10;99.90;;;;;;5012294;28;11485;-53
2022/04/21 07:06:42;;;;;;;;;0.00;0.00;17.00;99.90;;;;;;5019322;28;10273;-52
2022/04/21 07:09:13;;;;;;;;;0.50;0.50;17.00;99.90;;;;;;5020518;28;10342;-54
2022/04/21 07:11:44;;;;;;;;;1.00;1.00;17.00;99.90;;;;;;5049205;28;11086;-53
2022/04/21 07:14:15;;;;;;;;;0.00;0.00;17.00;99.90;;;;;;5022416;28;10560;-52
2022/04/21 07:16:45;;;;;;;;;0.00;0.00;17.00;99.90;;;;;;5012786;28;10420;-53
2022/04/21 07:19:17;;;;;;;;;0.00;0.00;16.90;99.90;;;;;;5017530;28;10289;-51
2022/04/21 07:21:48;;;;;;;;;1.00;0.25;16.90;99.90;;;;;;5018890;28;10375;-50
2022/04/21 07:24:19;;;;;;;;;0.00;0.00;16.90;99.90;;;;;;5017464;28;10451;-52
2022/04/21 07:26:49;;;;;;;;;0.00;0.00;16.90;99.90;;;;;;5019716;28;10354;-53
2022/04/21 07:29:22;;;;;;;;;0.00;0.00;16.80;99.90;;;;;;5020246;28;10462;-52
2022/04/21 07:31:53;;;;;;;;;0.00;0.00;16.90;99.90;;;;;;5036520;28;10324;-53
2022/04/21 07:34:24;;;;;;;;;0.00;0.00;16.80;99.90;;;;;;5047096;28;10416;-54
2022/04/21 07:36:56;;;;;;;;;0.00;0.00;16.70;99.90;;;;;;5019395;28;10268;-54
2022/04/21 07:39:27;;;;;;;;;0.00;0.00;16.70;99.90;;;;;;5009962;28;10420;-52
2022/04/21 07:41:58;;;;;;;;;0.00;0.00;16.70;99.90;;;;;;5018786;28;10387;-54
2022/04/21 07:44:31;;;;;;;;;0.00;0.00;16.70;99.90;;;;;;5016935;28;11247;-52
2022/04/21 07:47:04;;;;;;;;;1.00;1.00;16.70;99.90;;;;;;5014124;28;10400;-52
2022/04/21 07:49:46;;;;;;;;;0.00;0.00;16.70;99.90;;;;;;5015692;28;10515;-53
2022/04/21 07:55:19;;;;;;;;;0.00;0.00;16.60;99.90;;;;;;5015276;28;10409;-51
2022/04/21 07:57:49;;;;;;;;;0.00;0.00;16.60;99.90;;;;;;5015914;28;10338;-52
2022/04/21 08:00:21;;;;;;;;;0.00;0.00;16.60;99.90;;;;;;5016429;28;10259;-51
2022/04/21 08:02:51;;;;;;;;;0.00;0.00;16.60;99.90;;;;;;5015676;28;10436;-52
2022/04/21 08:05:23;;;;;;;;;0.00;0.00;16.60;99.90;;;;;;5018587;28;11140;-52
2022/04/21 08:07:53;;;;;;;;;0.00;0.00;16.60;99.90;;;;;;5015531;28;10383;-54
2022/04/21 08:10:27;;;;;;;;;0.50;0.50;16.50;99.90;;;;;;5018111;28;10462;-53
2022/04/21 08:13:00;;;;;;;;;0.00;0.00;16.50;99.90;;;;;;5017281;28;10472;-53
2022/04/21 08:15:33;;;;;;;;;0.00;0.00;16.50;99.90;;;;;;5015954;28;10580;-52
2022/04/21 08:18:05;;;;;;;;;1.00;1.00;16.50;99.90;;;;;;5008187;28;10547;-51
2022/04/21 08:20:35;;;;;;;;;1.00;1.00;16.50;99.90;;;;;;5012987;28;11736;-50
2022/04/21 08:23:08;;;;;;;;;0.00;0.00;16.40;99.90;;;;;;5020076;28;10702;-51
2022/04/21 08:34:34;;;;;;;;;0.00;0.00;16.40;99.90;;;;;;5009260;28;10541;-49
2022/04/21 08:37:06;;;;;;;;;0.00;0.00;16.30;99.90;;;;;;5015128;28;11136;-50
2022/04/21 08:39:36;;;;;;;;;0.00;0.00;16.30;99.90;;;;;;5047679;28;10577;-51
2022/04/21 08:42:10;;;;;;;;;0.00;0.00;16.30;99.90;;;;;;5020393;28;10544;-51
2022/04/21 08:44:43;;;;;;;;;0.00;0.00;16.30;99.90;;;;;;5017937;28;10498;-52
2022/04/21 08:47:14;;;;;;;;;0.00;0.00;16.30;99.90;;;;;;5018404;28;10633;-51
2022/04/21 08:49:50;;;;;;;;;0.00;0.00;16.20;99.90;;;;;;5016782;28;11144;-51
2022/04/21 08:52:20;;;;;;;;;0.00;0.00;16.30;99.90;;;;;;5013144;28;10498;-49
2022/04/21 08:54:50;;;;;;;;;0.00;0.00;16.30;99.90;;;;;;5017276;28;10443;-50
2022/04/21 08:57:23;;;;;;;;;0.00;0.00;16.20;99.90;;;;;;5013253;28;10542;-52
2022/04/21 08:59:54;;;;;;;;;0.00;0.00;16.20;99.90;;;;;;5013852;28;10440;-52
2022/04/21 09:02:41;;;;;;;;;0.00;0.00;16.20;99.90;;;;;;5015148;28;10569;-50
2022/04/21 09:05:12;;;;;;;;;0.00;0.00;16.20;99.90;;;;;;5016515;28;10860;-51
2022/04/21 09:07:52;;;;;;;;;0.00;0.00;16.20;99.90;;;;;;5016478;28;10690;-51
2022/04/21 09:10:44;;;;;;;;;0.00;0.00;16.20;99.90;;;;;;5013213;28;10484;-49
2022/04/21 09:13:14;;;;;;;;;0.75;0.75;16.10;99.90;;;;;;5016884;28;10823;-49
2022/04/21 09:15:45;;;;;;;;;0.00;0.00;16.10;99.90;;;;;;5016957;28;10563;-47
2022/04/21 09:18:15;;;;;;;;;0.00;0.00;16.20;99.90;;;;;;5015864;28;10537;-50
2022/04/21 09:20:54;;;;;;;;;0.00;0.00;16.20;99.90;;;;;;5011448;28;10489;-50
2022/04/21 09:23:35;;;;;;;;;0.00;0.00;16.20;99.90;;;;;;5008912;28;10469;-48
2022/04/21 09:26:17;;;;;;;;;0.00;0.00;16.10;99.90;;;;;;5010580;28;11355;-49
2022/04/21 09:28:58;;;;;;;;;0.00;0.00;16.10;99.90;;;;;;5015969;28;10619;-50
2022/04/21 09:31:29;;;;;;;;;0.00;0.00;16.10;99.90;;;;;;5019533;28;10441;-53
2022/04/21 09:34:01;;;;;;;;;0.00;0.00;16.00;99.90;;;;;;5016563;28;10452;-52
2022/04/21 09:36:32;;;;;;;;;0.50;0.50;16.00;99.90;;;;;;5018252;28;10516;-50
2022/04/21 09:39:05;;;;;;;;;0.00;0.00;16.00;99.90;;;;;;5021336;28;10539;-51
2022/04/21 09:41:37;;;;;;;;;0.00;0.00;16.10;99.90;;;;;;5013865;28;11306;-50
2022/04/21 09:47:07;;;;;;;;;0.00;0.00;16.10;99.90;;;;;;5018758;28;10374;-52
2022/04/21 09:49:41;;;;;;;;;2.00;1.00;16.00;99.90;;;;;;5018392;28;10365;-52
2022/04/21 09:52:12;;;;;;;;;0.00;0.00;16.00;99.90;;;;;;5016127;28;10617;-52
2022/04/21 09:54:46;;;;;;;;;1.00;0.00;16.00;99.90;;;;;;5019445;28;10626;-49
2022/04/21 09:57:30;;;;;;;;;0.50;0.25;16.00;99.90;;;;;;5017790;28;10352;-51
2022/04/21 10:00:00;;;;;;;;;0.75;0.75;16.00;99.90;;;;;;5018411;28;10527;-53
2022/04/21 10:02:35;;;;;;;;;0.25;0.25;16.00;99.90;;;;;;5019973;28;10612;-49
2022/04/21 10:05:06;;;;;;;;;0.00;0.00;16.00;99.90;;;;;;5021340;28;10558;-52
2022/04/21 10:07:37;;;;;;;;;0.25;0.25;16.00;99.90;;;;;;5017210;28;10595;-51
2022/04/21 10:10:10;;;;;;;;;0.25;0.25;16.00;99.90;;;;;;5016561;28;10707;-52
2022/04/21 10:12:42;;;;;;;;;0.00;0.00;15.90;99.90;;;;;;5019495;28;10356;-51
2022/04/21 10:15:13;;;;;;;;;0.00;0.00;16.00;99.90;;;;;;5018617;28;10454;-51
2022/04/21 10:17:44;;;;;;;;;0.00;0.00;15.90;99.90;;;;;;5018986;28;10547;-53
2022/04/21 10:20:14;;;;;;;;;0.00;0.00;15.90;99.90;;;;;;5019058;28;10463;-48
2022/04/21 10:22:47;;;;;;;;;1.00;1.00;15.90;99.90;;;;;;5045889;28;11456;-53
2022/04/21 10:25:19;;;;;;;;;0.00;0.00;15.90;99.90;;;;;;5047279;28;11368;-51
2022/04/21 10:27:53;;;;;;;;;1.00;1.00;15.90;99.90;;;;;;5015366;28;10564;-52
2022/04/21 10:30:26;;;;;;;;;2.00;1.00;15.90;99.90;;;;;;5019993;28;11153;-51
2022/04/21 10:33:01;;;;;;;;;1.00;1.00;15.80;99.90;;;;;;5018016;28;10685;-52
2022/04/21 10:35:33;;;;;;;;;0.75;0.75;15.80;99.90;;;;;;5014290;28;10474;-51
2022/04/21 10:38:25;;;;;;;;;1.00;1.00;15.80;99.90;;;;;;5018926;28;10645;-52
2022/04/21 10:41:06;;;;;;;;;1.00;1.00;15.80;99.90;;;;;;5015450;28;10526;-52
2022/04/21 10:43:49;;;;;;;;;0.75;0.75;15.80;99.90;;;;;;5014225;28;10744;-51
2022/04/21 10:46:30;;;;;;;;;0.00;0.00;15.80;99.90;;;;;;5014571;28;10589;-49
2022/04/21 10:49:00;;;;;;;;;0.25;0.25;15.80;99.90;;;;;;5044263;28;10611;-52
2022/04/21 10:57:35;;;;;;;;;1.00;1.00;15.80;99.90;;;;;;5015524;28;10589;-50
2022/04/21 11:00:11;;;;;;;;;0.25;0.25;15.70;99.90;;;;;;5014247;28;10849;-52
2022/04/21 11:02:43;;;;;;;;;1.00;1.00;15.70;99.90;;;;;;5021640;28;10763;-52
2022/04/21 11:05:23;;;;;;;;;0.25;0.25;15.70;99.90;;;;;;5039376;28;10807;-52
2022/04/21 11:07:57;;;;;;;;;0.00;0.00;15.70;99.90;;;;;;5014524;28;10667;-51
2022/04/21 11:10:38;;;;;;;;;0.00;0.00;15.70;99.90;;;;;;5012548;28;10863;-52
2022/04/21 11:13:11;;;;;;;;;0.75;0.75;15.70;99.90;;;;;;5022169;28;10517;-52
2022/04/21 11:15:54;;;;;;;;;0.50;0.50;15.70;99.90;;;;;;5016112;28;11506;-48
2022/04/21 11:18:33;;;;;;;;;1.00;0.00;15.70;99.90;;;;;;5047574;28;10672;-48
2022/04/21 11:21:24;;;;;;;;;0.75;0.75;15.70;99.90;;;;;;5019286;28;11267;-49
2022/04/21 11:23:56;;;;;;;;;0.75;0.75;15.60;99.90;;;;;;5018133;28;10765;-52
2022/04/21 11:26:31;;;;;;;;;0.00;0.00;15.60;99.90;;;;;;5016399;28;10680;-52
2022/04/21 11:29:04;;;;;;;;;0.00;0.00;15.60;99.90;;;;;;5018382;28;10969;-52
2022/04/21 11:31:34;;;;;;;;;0.50;0.50;15.60;99.90;;;;;;5018451;28;10728;-53
2022/04/21 11:34:05;;;;;;;;;0.25;0.25;15.60;99.90;;;;;;5012975;28;10874;-51
2022/04/21 11:36:40;;;;;;;;;0.00;0.00;15.60;99.90;;;;;;5010044;28;11482;-49
2022/04/21 11:39:14;;;;;;;;;1.00;1.00;15.60;99.90;;;;;;5018501;28;10812;-52
2022/04/21 11:41:48;;;;;;;;;0.00;0.00;15.60;99.90;;;;;;5043042;28;10707;-50
2022/04/21 11:44:23;;;;;;;;;0.00;0.00;15.60;99.90;;;;;;5018703;28;10642;-52
2022/04/21 11:46:54;;;;;;;;;0.00;0.00;15.60;99.90;;;;;;5016171;28;11350;-52
2022/04/21 11:49:25;;;;;;;;;0.00;0.00;15.50;99.90;;;;;;5013846;28;10700;-52
2022/04/21 11:51:55;;;;;;;;;0.00;0.00;15.50;99.90;;;;;;5017029;28;10554;-53
2022/04/21 11:54:25;;;;;;;;;0.00;0.00;15.50;99.90;;;;;;5019192;28;10518;-51
2022/04/21 11:56:55;;;;;;;;;1.25;1.25;15.50;99.90;;;;;;5016728;28;10705;-51
2022/04/21 11:59:36;;;;;;;;;1.00;1.00;15.50;99.90;;;;;;5015907;28;10699;-52
2022/04/21 12:07:48;;;;;;;;;1.00;1.00;15.50;99.90;;;;;;5016396;28;10597;-53
2022/04/21 12:10:19;;;;;;;;;1.00;1.00;15.40;99.90;;;;;;5009259;28;10745;-52
2022/04/21 12:12:49;;;;;;;;;0.00;0.00;15.40;99.90;;;;;;5014813;28;10810;-52
2022/04/21 12:15:31;;;;;;;;;0.25;0.25;15.40;99.90;;;;;;5012889;28;10857;-49
2022/04/21 12:18:02;;;;;;;;;1.00;1.00;15.40;99.90;;;;;;5014390;28;11529;-50
2022/04/21 12:20:32;;;;;;;;;0.00;0.00;15.40;99.90;;;;;;5017017;28;10843;-53
2022/04/21 12:23:04;;;;;;;;;1.00;1.00;15.40;99.90;;;;;;5015779;28;10914;-50
2022/04/21 12:25:34;;;;;;;;;0.00;0.00;15.40;99.90;;;;;;5012890;28;10444;-51
2022/04/21 12:28:07;;;;;;;;;0.75;0.75;15.40;99.90;;;;;;5012695;28;10700;-50
2022/04/21 12:30:41;;;;;;;;;1.00;1.00;15.30;99.90;;;;;;5013206;28;10656;-50
2022/04/21 12:33:12;;;;;;;;;3.25;1.00;15.30;99.90;;;;;;5016597;28;10800;-49
2022/04/21 12:35:45;;;;;;;;;1.00;1.00;15.30;99.90;;;;;;5014242;28;10758;-49
2022/04/21 12:41:06;;;;;;;;;0.50;0.50;15.30;99.90;;;;;;5010816;28;11418;-50
2022/04/21 12:43:36;;;;;;;;;2.00;2.00;15.30;99.90;;;;;;5047763;28;10717;-49
2022/04/21 12:46:06;;;;;;;;;1.50;1.50;15.30;99.90;;;;;;5015865;28;11151;-50
2022/04/21 12:48:48;;;;;;;;;1.50;1.00;15.30;99.90;;;;;;5018538;28;10928;-51
2022/04/21 12:51:20;;;;;;;;;1.00;1.00;15.30;99.90;;;;;;5011529;28;10700;-49
2022/04/21 12:53:58;;;;;;;;;0.00;0.00;15.30;99.90;;;;;;5012186;28;10848;-51
2022/04/21 12:56:36;;;;;;;;;1.00;1.00;15.30;99.90;;;;;;5047302;28;11628;-52
2022/04/21 12:59:07;;;;;;;;;1.00;1.00;15.30;99.90;;;;;;5014859;28;10947;-48
2022/04/21 13:01:38;;;;;;;;;0.25;0.25;15.20;99.90;;;;;;5012000;28;10748;-49
2022/04/21 13:04:08;;;;;;;;;1.00;1.00;15.20;99.90;;;;;;5015878;28;10770;-51
2022/04/21 13:06:38;;;;;;;;;1.00;1.00;15.20;99.90;;;;;;5017066;28;10585;-52
2022/04/21 13:09:10;;;;;;;;;1.25;1.25;15.20;99.90;;;;;;5030947;28;10882;-49
2022/04/21 13:11:42;;;;;;;;;2.00;2.00;15.20;99.90;;;;;;5013083;28;10990;-49
2022/04/21 13:14:18;;;;;;;;;0.00;0.00;15.20;99.90;;;;;;5019724;28;10973;-51
2022/04/21 13:16:50;;;;;;;;;1.00;1.00;15.20;99.90;;;;;;5015888;28;10853;-50
2022/04/21 13:19:20;;;;;;;;;1.00;1.00;15.20;99.90;;;;;;5018049;28;10997;-51
2022/04/21 13:22:07;;;;;;;;;1.00;1.00;15.20;99.90;;;;;;5028390;28;10903;-52
2022/04/21 13:24:39;;;;;;;;;1.00;1.00;15.20;99.90;;;;;;5015718;28;10829;-53
2022/04/21 13:27:10;;;;;;;;;0.00;0.00;15.20;99.90;;;;;;5011382;28;10915;-49
2022/04/21 13:29:41;;;;;;;;;1.50;1.50;15.20;99.90;;;;;;5017656;28;10912;-51
2022/04/21 13:35:00;;;;;;;;;1.00;1.00;15.10;99.90;;;;;;5012383;28;10896;-51
2022/04/21 13:37:30;;;;;;;;;2.00;2.00;15.10;99.90;;;;;;5015751;28;10761;-51
2022/04/21 13:40:01;;;;;;;;;1.00;1.00;15.10;99.90;;;;;;5016280;28;10664;-51
2022/04/21 13:42:31;;;;;;;;;1.00;1.00;15.10;99.90;;;;;;5015700;28;10694;-49
2022/04/21 13:45:02;;;;;;;;;1.00;1.00;15.10;99.90;;;;;;5023787;28;10819;-51
2022/04/21 13:47:53;;;;;;;;;1.25;1.25;15.10;99.90;;;;;;5013029;28;10865;-52
2022/04/21 13:50:23;;;;;;;;;0.50;0.50;15.10;99.90;;;;;;5015645;28;10844;-51
2022/04/21 13:52:54;;;;;;;;;2.00;2.00;15.10;99.90;;;;;;5013987;28;10474;-53
2022/04/21 13:55:25;;;;;;;;;1.75;1.75;15.10;99.90;;;;;;5045260;28;11210;-49
2022/04/21 13:57:55;;;;;;;;;1.00;1.00;15.10;99.90;;;;;;5043497;28;10960;-52
2022/04/21 14:00:27;;;;;;;;;2.00;2.00;15.10;99.90;;;;;;5018517;28;10744;-53
2022/04/21 14:02:58;;;;;;;;;1.75;1.75;15.10;99.90;;;;;;5014531;28;10951;-51
2022/04/21 14:05:28;;;;;;;;;1.00;1.00;15.10;99.90;;;;;;5012986;28;10857;-49
2022/04/21 14:07:59;;;;;;;;;1.75;1.75;15.10;99.90;;;;;;5015969;28;10827;-51
2022/04/21 14:10:30;;;;;;;;;2.75;2.75;15.10;99.90;;;;;;5013515;28;10994;-50
2022/04/21 14:13:02;;;;;;;;;1.50;1.50;15.10;99.90;;;;;;5014758;28;10679;-49
2022/04/21 14:15:33;;;;;;;;;3.00;1.00;15.10;99.90;;;;;;5014591;28;10971;-50